Portada
METAR-TAF:

METAR-TAF

Aeroports :

Schenectady County Airport

Schenectady, Nova York, Estats Units d'Amèrica

latitud: 42-51N, longitud: 073-56W, altitud: 115 m

Observació

L'informe es va fer fa 4 hores i 57 minuts, a les 02:45 UTC
Vent 6 kt del Sud
Temperatura -1°C
Humitat 69%
Pressió 1024 hPa
Visibilitat: 16.1 km
Cel ennuvolat a una alçada de 8000 ft
Cel cobert a una alçada de 10000 ft

METAR: KSCH 150245Z 17006KT 10SM BKN080 OVC100 M01/M06 A3025 RMK LAST

Hora: 02:42 (07:42 UTC)


TAF: manca

Observacions i pronòstics meteorològics de més de 4000 aeroports (METAR i TAF).

Les estacions disponibles són els punts grocs i vermells al mapa.

Posi el ratolí al punt desitjat per veure el nom de l'estació.

Feu clic per veure les observacions i els pronòstics meteorològics.

Per canviar el mapa: feu clic els botons verds amb una creu de color negre per apropar; al botó verd amb un guió per allunyar la imatge; o en les fletxes verdes per a mapes adjacents.


METAR-TAF: